sensor_id;sensor_type;location;lat;lon;timestamp;pressure;altitude;pressure_sealevel;temperature;humidity
31088;BME280;17745;55.914;37.554;2023-04-03T00:01:23;98863.97;;;12.95;54.92
31088;BME280;17745;55.914;37.554;2023-04-03T00:04:01;98866.59;;;13.00;54.90
31088;BME280;17745;55.914;37.554;2023-04-03T00:06:28;98864.16;;;13.04;54.86
31088;BME280;17745;55.914;37.554;2023-04-03T00:08:59;98868.66;;;13.08;54.86
31088;BME280;17745;55.914;37.554;2023-04-03T00:11:27;98869.69;;;13.12;54.85
31088;BME280;17745;55.914;37.554;2023-04-03T00:13:55;98869.12;;;13.15;54.85
31088;BME280;17745;55.914;37.554;2023-04-03T00:16:23;98864.63;;;13.16;54.77
31088;BME280;17745;55.914;37.554;2023-04-03T00:18:53;98861.69;;;13.18;54.75
31088;BME280;17745;55.914;37.554;2023-04-03T00:21:24;98869.94;;;13.16;54.64
31088;BME280;17745;55.914;37.554;2023-04-03T00:23:55;98865.94;;;13.19;54.68
31088;BME280;17745;55.914;37.554;2023-04-03T00:26:24;98865.66;;;13.20;54.60
31088;BME280;17745;55.914;37.554;2023-04-03T00:28:52;98861.34;;;13.24;54.55
31088;BME280;17745;55.914;37.554;2023-04-03T00:31:20;98862.94;;;13.25;54.55
31088;BME280;17745;55.914;37.554;2023-04-03T00:33:48;98870.66;;;13.27;54.67
31088;BME280;17745;55.914;37.554;2023-04-03T00:36:16;98868.81;;;13.27;54.71
31088;BME280;17745;55.914;37.554;2023-04-03T00:38:44;98864.56;;;13.26;54.71
31088;BME280;17745;55.914;37.554;2023-04-03T00:41:12;98858.16;;;13.27;54.62
31088;BME280;17745;55.914;37.554;2023-04-03T00:43:41;98869.56;;;13.28;54.66
31088;BME280;17745;55.914;37.554;2023-04-03T00:46:09;98868.50;;;13.29;54.76
31088;BME280;17745;55.914;37.554;2023-04-03T00:48:40;98870.91;;;13.25;54.79
31088;BME280;17745;55.914;37.554;2023-04-03T00:51:12;98865.66;;;13.20;54.93
31088;BME280;17745;55.914;37.554;2023-04-03T00:53:44;98863.81;;;13.15;55.02
31088;BME280;17745;55.914;37.554;2023-04-03T00:56:15;98865.69;;;13.15;55.04
31088;BME280;17745;55.914;37.554;2023-04-03T00:58:50;98864.66;;;13.11;55.05
31088;BME280;17745;55.914;37.554;2023-04-03T01:01:22;98868.16;;;13.06;55.12
31088;BME280;17745;55.914;37.554;2023-04-03T01:03:51;98863.66;;;13.01;55.13
31088;BME280;17745;55.914;37.554;2023-04-03T01:06:21;98861.56;;;12.98;55.16
31088;BME280;17745;55.914;37.554;2023-04-03T01:08:53;98863.19;;;12.94;55.09
31088;BME280;17745;55.914;37.554;2023-04-03T01:11:22;98861.66;;;12.83;55.01
31088;BME280;17745;55.914;37.554;2023-04-03T01:13:52;98868.31;;;12.80;55.06
31088;BME280;17745;55.914;37.554;2023-04-03T01:16:20;98867.28;;;12.76;55.17
31088;BME280;17745;55.914;37.554;2023-04-03T01:18:48;98861.44;;;12.74;55.24
31088;BME280;17745;55.914;37.554;2023-04-03T01:21:37;98865.16;;;12.73;55.29
31088;BME280;17745;55.914;37.554;2023-04-03T01:24:22;98871.53;;;12.72;55.40
31088;BME280;17745;55.914;37.554;2023-04-03T01:26:53;98870.75;;;12.71;55.37
31088;BME280;17745;55.914;37.554;2023-04-03T01:29:23;98876.62;;;12.68;55.40
31088;BME280;17745;55.914;37.554;2023-04-03T01:31:53;98877.97;;;12.66;55.53
31088;BME280;17745;55.914;37.554;2023-04-03T01:34:27;98874.00;;;12.58;55.63
31088;BME280;17745;55.914;37.554;2023-04-03T01:36:55;98871.91;;;12.55;55.60
31088;BME280;17745;55.914;37.554;2023-04-03T01:39:23;98876.69;;;12.53;55.48
31088;BME280;17745;55.914;37.554;2023-04-03T01:41:52;98874.81;;;12.53;55.45
31088;BME280;17745;55.914;37.554;2023-04-03T01:44:23;98875.63;;;12.54;55.39
31088;BME280;17745;55.914;37.554;2023-04-03T01:46:54;98872.72;;;12.50;55.32
31088;BME280;17745;55.914;37.554;2023-04-03T01:49:25;98873.56;;;12.46;55.40
31088;BME280;17745;55.914;37.554;2023-04-03T01:51:54;98876.72;;;12.42;55.46
31088;BME280;17745;55.914;37.554;2023-04-03T01:54:27;98874.06;;;12.42;55.55
31088;BME280;17745;55.914;37.554;2023-04-03T01:56:55;98870.34;;;12.43;55.59
31088;BME280;17745;55.914;37.554;2023-04-03T01:59:23;98870.12;;;12.40;55.64
31088;BME280;17745;55.914;37.554;2023-04-03T02:01:56;98871.44;;;12.37;55.71
31088;BME280;17745;55.914;37.554;2023-04-03T02:04:24;98879.72;;;12.36;55.75
31088;BME280;17745;55.914;37.554;2023-04-03T02:06:52;98877.56;;;12.33;55.82
31088;BME280;17745;55.914;37.554;2023-04-03T02:09:19;98890.84;;;12.33;55.78
31088;BME280;17745;55.914;37.554;2023-04-03T02:11:52;98878.91;;;12.35;55.73
31088;BME280;17745;55.914;37.554;2023-04-03T02:14:23;98874.91;;;12.38;55.69
31088;BME280;17745;55.914;37.554;2023-04-03T02:17:15;98875.44;;;12.40;55.68
31088;BME280;17745;55.914;37.554;2023-04-03T02:19:52;98884.47;;;12.39;55.67
31088;BME280;17745;55.914;37.554;2023-04-03T02:22:27;98884.19;;;12.40;55.58
31088;BME280;17745;55.914;37.554;2023-04-03T02:24:55;98873.84;;;12.39;55.59
31088;BME280;17745;55.914;37.554;2023-04-03T02:27:23;98878.34;;;12.38;55.60
31088;BME280;17745;55.914;37.554;2023-04-03T02:29:51;98874.63;;;12.39;55.63
31088;BME280;17745;55.914;37.554;2023-04-03T02:32:21;98874.09;;;12.37;55.46
31088;BME280;17745;55.914;37.554;2023-04-03T02:34:50;98874.13;;;12.32;55.34
31088;BME280;17745;55.914;37.554;2023-04-03T02:37:18;98880.53;;;12.26;55.34
31088;BME280;17745;55.914;37.554;2023-04-03T02:39:50;98878.41;;;12.28;55.41
31088;BME280;17745;55.914;37.554;2023-04-03T02:42:18;98876.28;;;12.30;55.40
31088;BME280;17745;55.914;37.554;2023-04-03T02:44:46;98878.38;;;12.33;55.40
31088;BME280;17745;55.914;37.554;2023-04-03T02:47:17;98874.41;;;12.36;55.33
31088;BME280;17745;55.914;37.554;2023-04-03T02:49:50;98875.47;;;12.35;55.34
31088;BME280;17745;55.914;37.554;2023-04-03T02:52:24;98880.78;;;12.35;55.37
31088;BME280;17745;55.914;37.554;2023-04-03T02:54:53;98875.47;;;12.29;55.40
31088;BME280;17745;55.914;37.554;2023-04-03T02:57:27;98880.00;;;12.24;55.49
31088;BME280;17745;55.914;37.554;2023-04-03T02:59:55;98873.66;;;12.20;55.61
31088;BME280;17745;55.914;37.554;2023-04-03T03:02:26;98881.88;;;12.13;55.55
31088;BME280;17745;55.914;37.554;2023-04-03T03:05:16;98878.44;;;12.12;55.63
31088;BME280;17745;55.914;37.554;2023-04-03T03:12:07;98875.50;;;12.14;55.51
31088;BME280;17745;55.914;37.554;2023-04-03T03:18:20;98886.69;;;12.16;55.39
31088;BME280;17745;55.914;37.554;2023-04-03T03:21:38;98891.97;;;12.11;55.44
31088;BME280;17745;55.914;37.554;2023-04-03T03:24:59;98887.75;;;12.05;55.38
31088;BME280;17745;55.914;37.554;2023-04-03T03:28:19;98893.31;;;11.98;55.31
31088;BME280;17745;55.914;37.554;2023-04-03T03:34:50;98885.09;;;11.89;55.33
31088;BME280;17745;55.914;37.554;2023-04-03T03:40:44;98895.97;;;11.98;55.14
31088;BME280;17745;55.914;37.554;2023-04-03T03:43:12;98900.50;;;11.97;55.26
31088;BME280;17745;55.914;37.554;2023-04-03T03:45:40;98902.09;;;11.98;55.32
31088;BME280;17745;55.914;37.554;2023-04-03T03:48:10;98907.66;;;12.02;55.35
31088;BME280;17745;55.914;37.554;2023-04-03T03:50:40;98906.06;;;12.06;55.34
31088;BME280;17745;55.914;37.554;2023-04-03T03:53:08;98904.47;;;12.10;55.37
31088;BME280;17745;55.914;37.554;2023-04-03T03:55:36;98898.88;;;12.12;55.36
31088;BME280;17745;55.914;37.554;2023-04-03T03:58:10;98905.25;;;12.16;55.44
31088;BME280;17745;55.914;37.554;2023-04-03T04:00:38;98903.87;;;12.29;55.38
31088;BME280;17745;55.914;37.554;2023-04-03T04:03:07;98904.34;;;12.41;55.26
31088;BME280;17745;55.914;37.554;2023-04-03T04:05:35;98901.94;;;12.50;55.18
31088;BME280;17745;55.914;37.554;2023-04-03T04:08:03;98902.97;;;12.60;55.17
31088;BME280;17745;55.914;37.554;2023-04-03T04:10:32;98895.75;;;12.70;55.07
31088;BME280;17745;55.914;37.554;2023-04-03T04:13:05;98897.81;;;12.79;54.94
31088;BME280;17745;55.914;37.554;2023-04-03T04:15:54;98898.31;;;12.81;54.84
31088;BME280;17745;55.914;37.554;2023-04-03T04:18:22;98899.66;;;12.83;54.74
31088;BME280;17745;55.914;37.554;2023-04-03T04:20:51;98904.97;;;12.83;54.76
31088;BME280;17745;55.914;37.554;2023-04-03T04:23:19;98888.00;;;12.79;54.65
31088;BME280;17745;55.914;37.554;2023-04-03T04:25:52;98907.88;;;12.82;54.63
31088;BME280;17745;55.914;37.554;2023-04-03T04:28:23;98899.09;;;12.86;54.56
31088;BME280;17745;55.914;37.554;2023-04-03T04:30:54;98904.63;;;12.95;54.43
31088;BME280;17745;55.914;37.554;2023-04-03T04:33:25;98893.19;;;13.00;54.16
31088;BME280;17745;55.914;37.554;2023-04-03T04:35:56;98901.41;;;12.98;54.20
31088;BME280;17745;55.914;37.554;2023-04-03T04:38:26;98904.31;;;13.02;54.06
31088;BME280;17745;55.914;37.554;2023-04-03T04:40:56;98910.66;;;13.06;53.97
31088;BME280;17745;55.914;37.554;2023-04-03T04:43:24;98901.06;;;13.10;53.84
31088;BME280;17745;55.914;37.554;2023-04-03T04:46:02;98914.59;;;13.14;53.78
31088;BME280;17745;55.914;37.554;2023-04-03T04:48:34;98910.31;;;13.18;53.48
31088;BME280;17745;55.914;37.554;2023-04-03T04:51:03;98916.44;;;13.19;53.49
31088;BME280;17745;55.914;37.554;2023-04-03T04:53:31;98916.44;;;13.19;53.43
31088;BME280;17745;55.914;37.554;2023-04-03T04:55:59;98915.06;;;13.21;53.33
31088;BME280;17745;55.914;37.554;2023-04-03T04:58:29;98924.84;;;13.31;53.22
31088;BME280;17745;55.914;37.554;2023-04-03T05:01:00;98928.50;;;13.40;53.06
31088;BME280;17745;55.914;37.554;2023-04-03T05:03:29;98923.19;;;13.46;52.66
31088;BME280;17745;55.914;37.554;2023-04-03T05:05:59;98926.63;;;13.46;52.63
31088;BME280;17745;55.914;37.554;2023-04-03T05:08:30;98927.69;;;13.50;52.53
31088;BME280;17745;55.914;37.554;2023-04-03T05:11:16;98917.75;;;13.61;52.45
31088;BME280;17745;55.914;37.554;2023-04-03T05:13:46;98914.41;;;13.75;52.15
31088;BME280;17745;55.914;37.554;2023-04-03T05:16:15;98917.56;;;13.82;52.20
31088;BME280;17745;55.914;37.554;2023-04-03T05:18:44;98914.97;;;14.01;51.99
31088;BME280;17745;55.914;37.554;2023-04-03T05:21:13;98915.25;;;14.24;51.72
31088;BME280;17745;55.914;37.554;2023-04-03T05:23:42;98917.16;;;14.42;51.44
31088;BME280;17745;55.914;37.554;2023-04-03T05:26:10;98912.25;;;14.55;51.40
31088;BME280;17745;55.914;37.554;2023-04-03T05:28:39;98916.31;;;14.71;51.23
31088;BME280;17745;55.914;37.554;2023-04-03T05:31:07;98920.81;;;14.95;50.90
31088;BME280;17745;55.914;37.554;2023-04-03T05:33:37;98913.00;;;15.18;50.50
31088;BME280;17745;55.914;37.554;2023-04-03T05:36:07;98908.72;;;15.36;49.77
31088;BME280;17745;55.914;37.554;2023-04-03T05:38:36;98913.09;;;15.46;49.81
31088;BME280;17745;55.914;37.554;2023-04-03T05:41:04;98913.84;;;15.66;49.47
31088;BME280;17745;55.914;37.554;2023-04-03T05:43:33;98917.13;;;15.77;48.83
31088;BME280;17745;55.914;37.554;2023-04-03T05:46:09;98923.97;;;15.83;48.60
31088;BME280;17745;55.914;37.554;2023-04-03T05:48:39;98913.19;;;15.88;48.23
31088;BME280;17745;55.914;37.554;2023-04-03T05:51:14;98918.53;;;15.88;47.96
31088;BME280;17745;55.914;37.554;2023-04-03T05:53:44;98917.72;;;15.87;47.47
31088;BME280;17745;55.914;37.554;2023-04-03T05:56:48;98923.06;;;15.73;47.09
31088;BME280;17745;55.914;37.554;2023-04-03T05:59:17;98923.66;;;15.70;47.12
31088;BME280;17745;55.914;37.554;2023-04-03T06:01:46;98931.75;;;15.65;47.37
31088;BME280;17745;55.914;37.554;2023-04-03T06:07:05;98926.81;;;15.72;47.23
31088;BME280;17745;55.914;37.554;2023-04-03T06:09:33;98935.69;;;15.68;47.17
31088;BME280;17745;55.914;37.554;2023-04-03T06:12:03;98939.75;;;15.65;47.05
31088;BME280;17745;55.914;37.554;2023-04-03T06:14:41;98939.75;;;15.65;46.93
31088;BME280;17745;55.914;37.554;2023-04-03T06:17:15;98936.00;;;15.66;46.79
31088;BME280;17745;55.914;37.554;2023-04-03T06:19:49;98937.19;;;15.74;46.63
31088;BME280;17745;55.914;37.554;2023-04-03T06:22:22;98955.06;;;15.73;46.17
31088;BME280;17745;55.914;37.554;2023-04-03T06:24:52;98949.63;;;15.65;46.28
31088;BME280;17745;55.914;37.554;2023-04-03T06:27:34;98941.59;;;15.65;46.12
31088;BME280;17745;55.914;37.554;2023-04-03T06:30:08;98949.63;;;15.65;45.89
31088;BME280;17745;55.914;37.554;2023-04-03T06:32:41;98950.31;;;15.70;45.94
31088;BME280;17745;55.914;37.554;2023-04-03T06:35:12;98950.13;;;15.81;45.69
31088;BME280;17745;55.914;37.554;2023-04-03T06:37:45;98955.09;;;15.87;45.43
31088;BME280;17745;55.914;37.554;2023-04-03T06:40:23;98954.75;;;15.94;45.40
31088;BME280;17745;55.914;37.554;2023-04-03T06:42:53;98957.06;;;16.15;45.12
31088;BME280;17745;55.914;37.554;2023-04-03T06:45:28;98956.78;;;16.31;44.93
31088;BME280;17745;55.914;37.554;2023-04-03T06:47:58;98957.97;;;16.52;44.62
31088;BME280;17745;55.914;37.554;2023-04-03T06:50:31;98957.75;;;16.77;44.34
31088;BME280;17745;55.914;37.554;2023-04-03T06:52:58;98966.34;;;16.87;43.91
31088;BME280;17745;55.914;37.554;2023-04-03T06:55:27;98963.19;;;16.99;43.93
31088;BME280;17745;55.914;37.554;2023-04-03T06:57:56;98950.84;;;17.12;43.76
31088;BME280;17745;55.914;37.554;2023-04-03T07:00:24;98956.50;;;17.34;43.49
31088;BME280;17745;55.914;37.554;2023-04-03T07:02:54;98960.25;;;17.47;43.30
31088;BME280;17745;55.914;37.554;2023-04-03T07:05:31;98957.03;;;17.36;43.26
31088;BME280;17745;55.914;37.554;2023-04-03T07:08:00;98964.19;;;17.49;43.14
31088;BME280;17745;55.914;37.554;2023-04-03T07:10:33;98965.44;;;17.75;42.74
31088;BME280;17745;55.914;37.554;2023-04-03T07:13:07;98961.62;;;17.98;42.28
31088;BME280;17745;55.914;37.554;2023-04-03T07:15:45;98968.50;;;18.13;42.24
31088;BME280;17745;55.914;37.554;2023-04-03T07:18:52;98962.44;;;18.31;41.98
31088;BME280;17745;55.914;37.554;2023-04-03T07:24:28;98953.84;;;18.51;41.09
31088;BME280;17745;55.914;37.554;2023-04-03T07:27:11;98956.81;;;18.50;41.04
31088;BME280;17745;55.914;37.554;2023-04-03T07:29:50;98965.63;;;18.41;41.22
31088;BME280;17745;55.914;37.554;2023-04-03T07:32:27;98964.87;;;18.50;41.03
31088;BME280;17745;55.914;37.554;2023-04-03T07:35:11;98969.94;;;18.51;40.48
31088;BME280;17745;55.914;37.554;2023-04-03T07:37:42;98971.63;;;18.38;40.69
31088;BME280;17745;55.914;37.554;2023-04-03T07:40:21;98980.91;;;18.41;40.52
31088;BME280;17745;55.914;37.554;2023-04-03T07:42:53;98972.72;;;18.37;40.42
31088;BME280;17745;55.914;37.554;2023-04-03T07:45:24;98975.06;;;18.39;40.25
31088;BME280;17745;55.914;37.554;2023-04-03T07:48:00;98977.47;;;18.40;40.01
31088;BME280;17745;55.914;37.554;2023-04-03T07:50:39;98970.38;;;18.45;39.63
31088;BME280;17745;55.914;37.554;2023-04-03T07:53:17;98966.28;;;18.47;39.64
31088;BME280;17745;55.914;37.554;2023-04-03T07:55:52;98969.63;;;18.62;39.36
31088;BME280;17745;55.914;37.554;2023-04-03T07:58:28;98977.22;;;18.77;39.18
31088;BME280;17745;55.914;37.554;2023-04-03T08:01:09;98968.56;;;18.89;38.26
31088;BME280;17745;55.914;37.554;2023-04-03T08:03:44;98971.13;;;19.03;38.21
31088;BME280;17745;55.914;37.554;2023-04-03T08:06:15;98975.56;;;19.17;38.13
31088;BME280;17745;55.914;37.554;2023-04-03T08:08:56;98973.06;;;19.29;37.88
31088;BME280;17745;55.914;37.554;2023-04-03T08:11:37;98977.78;;;19.41;37.43
31088;BME280;17745;55.914;37.554;2023-04-03T08:14:20;98980.59;;;19.45;37.44
31088;BME280;17745;55.914;37.554;2023-04-03T08:16:56;98970.03;;;19.57;36.96
31088;BME280;17745;55.914;37.554;2023-04-03T08:19:28;98976.97;;;19.58;36.29
31088;BME280;17745;55.914;37.554;2023-04-03T08:22:02;98973.03;;;19.55;36.31
31088;BME280;17745;55.914;37.554;2023-04-03T08:24:38;98970.78;;;19.66;36.00
31088;BME280;17745;55.914;37.554;2023-04-03T08:27:15;98969.50;;;19.81;35.99
31088;BME280;17745;55.914;37.554;2023-04-03T08:29:48;98967.13;;;19.89;36.06
31088;BME280;17745;55.914;37.554;2023-04-03T08:32:17;98976.12;;;19.93;36.11
31088;BME280;17745;55.914;37.554;2023-04-03T08:34:54;98967.91;;;19.98;35.99
31088;BME280;17745;55.914;37.554;2023-04-03T08:37:26;98970.28;;;19.99;35.61
31088;BME280;17745;55.914;37.554;2023-04-03T08:39:58;98973.44;;;19.84;35.45
31088;BME280;17745;55.914;37.554;2023-04-03T08:42:40;98971.09;;;19.91;35.54
31088;BME280;17745;55.914;37.554;2023-04-03T08:45:22;98971.16;;;20.12;35.42
31088;BME280;17745;55.914;37.554;2023-04-03T08:47:59;98972.06;;;20.25;35.25
31088;BME280;17745;55.914;37.554;2023-04-03T08:50:37;98979.37;;;20.16;34.82
31088;BME280;17745;55.914;37.554;2023-04-03T08:53:20;98974.72;;;19.86;34.73
31088;BME280;17745;55.914;37.554;2023-04-03T08:55:53;98978.69;;;19.80;35.02
31088;BME280;17745;55.914;37.554;2023-04-03T08:58:24;98981.31;;;19.89;34.96
31088;BME280;17745;55.914;37.554;2023-04-03T09:00:58;98986.25;;;19.96;34.98
31088;BME280;17745;55.914;37.554;2023-04-03T09:03:29;98988.44;;;19.85;34.81
31088;BME280;17745;55.914;37.554;2023-04-03T09:06:06;98992.59;;;19.74;35.16
31088;BME280;17745;55.914;37.554;2023-04-03T09:08:46;98993.03;;;19.84;35.23
31088;BME280;17745;55.914;37.554;2023-04-03T09:11:24;98996.00;;;20.09;34.73
31088;BME280;17745;55.914;37.554;2023-04-03T09:13:54;99000.38;;;20.32;34.54
31088;BME280;17745;55.914;37.554;2023-04-03T09:16:36;99001.78;;;20.29;34.64
31088;BME280;17745;55.914;37.554;2023-04-03T09:19:15;98994.56;;;20.21;34.40
31088;BME280;17745;55.914;37.554;2023-04-03T09:21:56;98995.72;;;20.41;34.51
31088;BME280;17745;55.914;37.554;2023-04-03T09:24:25;99005.78;;;20.53;34.62
31088;BME280;17745;55.914;37.554;2023-04-03T09:26:58;99000.69;;;20.60;34.47
31088;BME280;17745;55.914;37.554;2023-04-03T09:29:28;99008.53;;;20.74;33.94
31088;BME280;17745;55.914;37.554;2023-04-03T09:32:09;99009.81;;;20.68;34.00
31088;BME280;17745;55.914;37.554;2023-04-03T09:34:53;99004.84;;;20.79;33.83
31088;BME280;17745;55.914;37.554;2023-04-03T09:37:37;99004.97;;;20.91;33.92
31088;BME280;17745;55.914;37.554;2023-04-03T09:40:34;99008.66;;;21.08;33.59
31088;BME280;17745;55.914;37.554;2023-04-03T09:43:27;99005.91;;;21.17;33.43
31088;BME280;17745;55.914;37.554;2023-04-03T09:45:56;99005.00;;;21.12;33.45
31088;BME280;17745;55.914;37.554;2023-04-03T09:48:50;99017.56;;;20.99;33.79
31088;BME280;17745;55.914;37.554;2023-04-03T09:51:19;99008.94;;;20.94;33.74
31088;BME280;17745;55.914;37.554;2023-04-03T09:53:47;99009.84;;;20.98;33.79
31088;BME280;17745;55.914;37.554;2023-04-03T09:56:23;99006.28;;;21.06;33.64
31088;BME280;17745;55.914;37.554;2023-04-03T09:59:12;99006.91;;;21.12;33.13
31088;BME280;17745;55.914;37.554;2023-04-03T10:01:55;98998.84;;;21.33;32.93
31088;BME280;17745;55.914;37.554;2023-04-03T10:04:25;99003.94;;;21.47;33.07
31088;BME280;17745;55.914;37.554;2023-04-03T10:06:54;99003.66;;;21.61;32.64
31088;BME280;17745;55.914;37.554;2023-04-03T10:09:24;98997.22;;;21.32;31.94
31088;BME280;17745;55.914;37.554;2023-04-03T10:12:05;98988.50;;;21.14;32.43
31088;BME280;17745;55.914;37.554;2023-04-03T10:14:36;99000.66;;;20.99;32.27
31088;BME280;17745;55.914;37.554;2023-04-03T10:17:17;98992.38;;;20.83;32.40
31088;BME280;17745;55.914;37.554;2023-04-03T10:19:48;98999.84;;;20.98;32.10
31088;BME280;17745;55.914;37.554;2023-04-03T10:22:26;98997.84;;;21.17;31.76
31088;BME280;17745;55.914;37.554;2023-04-03T10:25:03;98998.09;;;20.73;31.82
31088;BME280;17745;55.914;37.554;2023-04-03T10:27:42;99001.94;;;20.33;32.51
31088;BME280;17745;55.914;37.554;2023-04-03T10:30:25;99005.16;;;20.17;32.88
31088;BME280;17745;55.914;37.554;2023-04-03T10:36:11;99000.66;;;19.56;33.47
31088;BME280;17745;55.914;37.554;2023-04-03T10:38:53;99009.38;;;19.35;34.07
31088;BME280;17745;55.914;37.554;2023-04-03T10:41:32;99007.44;;;19.27;34.29
31088;BME280;17745;55.914;37.554;2023-04-03T10:44:14;99020.25;;;19.21;34.49
31088;BME280;17745;55.914;37.554;2023-04-03T10:46:49;99020.72;;;19.23;34.26
31088;BME280;17745;55.914;37.554;2023-04-03T10:49:34;99017.25;;;19.23;34.07
31088;BME280;17745;55.914;37.554;2023-04-03T10:52:13;99021.97;;;19.35;33.75
31088;BME280;17745;55.914;37.554;2023-04-03T10:54:49;99025.00;;;19.51;33.38
31088;BME280;17745;55.914;37.554;2023-04-03T10:57:24;99021.81;;;19.57;33.50
31088;BME280;17745;55.914;37.554;2023-04-03T10:59:56;99025.75;;;19.78;33.38
31088;BME280;17745;55.914;37.554;2023-04-03T11:02:33;99027.00;;;19.98;32.87
31088;BME280;17745;55.914;37.554;2023-04-03T11:05:07;99020.03;;;20.06;32.28
31088;BME280;17745;55.914;37.554;2023-04-03T11:07:49;99020.63;;;20.20;32.09
31088;BME280;17745;55.914;37.554;2023-04-03T11:10:35;99012.44;;;20.55;31.73
31088;BME280;17745;55.914;37.554;2023-04-03T11:13:10;99018.19;;;21.05;30.96
31088;BME280;17745;55.914;37.554;2023-04-03T11:15:39;99011.28;;;21.38;30.52
31088;BME280;17745;55.914;37.554;2023-04-03T11:18:15;99016.78;;;21.63;30.62
31088;BME280;17745;55.914;37.554;2023-04-03T11:20:50;99013.00;;;21.97;30.10
31088;BME280;17745;55.914;37.554;2023-04-03T11:23:24;99003.84;;;22.36;29.83
31088;BME280;17745;55.914;37.554;2023-04-03T11:28:29;99012.03;;;22.39;29.29
31088;BME280;17745;55.914;37.554;2023-04-03T11:31:05;99003.69;;;22.07;29.57
31088;BME280;17745;55.914;37.554;2023-04-03T11:33:50;99013.19;;;21.92;29.41
31088;BME280;17745;55.914;37.554;2023-04-03T11:36:24;99004.72;;;21.81;29.08
31088;BME280;17745;55.914;37.554;2023-04-03T11:38:55;99002.34;;;21.67;29.37
31088;BME280;17745;55.914;37.554;2023-04-03T11:41:31;99000.97;;;21.40;29.60
31088;BME280;17745;55.914;37.554;2023-04-03T11:46:57;99003.69;;;21.19;29.53
31088;BME280;17745;55.914;37.554;2023-04-03T11:49:56;99007.50;;;21.18;29.75
31088;BME280;17745;55.914;37.554;2023-04-03T11:52:58;99001.50;;;21.12;29.75
31088;BME280;17745;55.914;37.554;2023-04-03T11:55:58;99005.13;;;21.16;29.75
31088;BME280;17745;55.914;37.554;2023-04-03T11:58:27;99008.94;;;21.36;29.70
31088;BME280;17745;55.914;37.554;2023-04-03T12:01:17;99010.31;;;21.42;29.75
31088;BME280;17745;55.914;37.554;2023-04-03T12:04:09;99010.97;;;21.39;29.40
31088;BME280;17745;55.914;37.554;2023-04-03T12:06:49;99006.59;;;21.13;29.51
31088;BME280;17745;55.914;37.554;2023-04-03T12:09:24;99007.63;;;21.00;29.65
31088;BME280;17745;55.914;37.554;2023-04-03T12:11:55;99003.63;;;20.76;29.72
31088;BME280;17745;55.914;37.554;2023-04-03T12:14:24;99012.41;;;20.64;29.89
31088;BME280;17745;55.914;37.554;2023-04-03T12:16:55;99015.78;;;20.52;29.82
31088;BME280;17745;55.914;37.554;2023-04-03T12:19:38;99018.34;;;20.40;29.87
31088;BME280;17745;55.914;37.554;2023-04-03T12:22:14;99016.00;;;20.29;29.72
31088;BME280;17745;55.914;37.554;2023-04-03T12:24:47;99015.09;;;20.17;29.88
31088;BME280;17745;55.914;37.554;2023-04-03T12:27:21;99008.94;;;20.16;29.98
31088;BME280;17745;55.914;37.554;2023-04-03T12:29:58;99012.56;;;20.20;30.01
31088;BME280;17745;55.914;37.554;2023-04-03T12:32:44;99013.03;;;20.22;30.18
31088;BME280;17745;55.914;37.554;2023-04-03T12:35:21;99011.47;;;20.21;30.09
31088;BME280;17745;55.914;37.554;2023-04-03T12:38:15;99014.00;;;20.09;30.20
31088;BME280;17745;55.914;37.554;2023-04-03T12:40:51;99008.53;;;19.96;30.40
31088;BME280;17745;55.914;37.554;2023-04-03T12:43:41;99001.41;;;19.83;30.65
31088;BME280;17745;55.914;37.554;2023-04-03T12:46:33;99020.22;;;19.83;30.67
31088;BME280;17745;55.914;37.554;2023-04-03T12:49:22;99010.28;;;19.75;30.74
31088;BME280;17745;55.914;37.554;2023-04-03T12:51:59;99017.41;;;19.70;31.04
31088;BME280;17745;55.914;37.554;2023-04-03T12:54:36;99020.72;;;19.58;31.24
31088;BME280;17745;55.914;37.554;2023-04-03T12:57:18;99013.62;;;19.45;31.45
31088;BME280;17745;55.914;37.554;2023-04-03T12:59:52;99019.00;;;19.36;31.69
31088;BME280;17745;55.914;37.554;2023-04-03T13:02:37;99024.66;;;19.17;31.83
31088;BME280;17745;55.914;37.554;2023-04-03T13:05:18;99013.06;;;18.90;32.19
31088;BME280;17745;55.914;37.554;2023-04-03T13:07:55;99015.25;;;18.79;32.39
31088;BME280;17745;55.914;37.554;2023-04-03T13:10:45;99009.41;;;18.77;32.59
31088;BME280;17745;55.914;37.554;2023-04-03T13:13:18;99013.81;;;18.73;32.71
31088;BME280;17745;55.914;37.554;2023-04-03T13:15:47;99017.87;;;18.62;32.92
31088;BME280;17745;55.914;37.554;2023-04-03T13:18:25;99021.97;;;18.50;33.21
31088;BME280;17745;55.914;37.554;2023-04-03T13:21:01;99025.37;;;18.42;33.44
31088;BME280;17745;55.914;37.554;2023-04-03T13:23:36;99026.13;;;18.34;33.56
31088;BME280;17745;55.914;37.554;2023-04-03T13:26:07;99030.84;;;18.28;33.74
31088;BME280;17745;55.914;37.554;2023-04-03T13:28:39;99028.59;;;18.21;33.83
31088;BME280;17745;55.914;37.554;2023-04-03T13:31:18;99033.78;;;18.18;33.98
31088;BME280;17745;55.914;37.554;2023-04-03T13:34:03;99031.06;;;18.09;34.25
31088;BME280;17745;55.914;37.554;2023-04-03T13:36:37;99030.69;;;18.02;34.43
31088;BME280;17745;55.914;37.554;2023-04-03T13:39:24;99030.44;;;17.89;34.62
31088;BME280;17745;55.914;37.554;2023-04-03T13:41:54;99028.81;;;17.79;34.94
31088;BME280;17745;55.914;37.554;2023-04-03T13:44:37;99028.88;;;17.65;35.14
31088;BME280;17745;55.914;37.554;2023-04-03T13:47:18;99037.00;;;17.60;35.36
31088;BME280;17745;55.914;37.554;2023-04-03T13:49:59;99035.91;;;17.61;35.53
31088;BME280;17745;55.914;37.554;2023-04-03T13:52:31;99034.44;;;17.55;35.74
31088;BME280;17745;55.914;37.554;2023-04-03T13:55:17;99042.88;;;17.48;35.83
31088;BME280;17745;55.914;37.554;2023-04-03T13:57:51;99040.03;;;17.44;36.16
31088;BME280;17745;55.914;37.554;2023-04-03T14:00:26;99030.25;;;17.40;36.19